QFA478 YSSY-YSCB
Flight info
| Callsign | QFA478 |
|---|---|
| Flight time | 0h 30m |
| Altitude | 20000 |
| Route | GROOK1/16R WOL H65 CB |
| Aircraft | B738/M-SDE2E3FGHIRWXY/LB1 |
Departure
| Time | 2026-04-23 00:20 |
|---|---|
| Airport | Sydney Kingsford Smith International Airport (YSSY) |
Arrival
| Time | 2026-04-23 00:50 |
|---|---|
| Airport | Canberra Airport (YSCB) |
| Time | Latitude | Longitude | Altitude | Speed | Heading |
|---|---|---|---|---|---|
| 2026-04-22 23:48 | -33.93126 | 151.17756 | 29 ft | 0 kts | 189° |
| 2026-04-23 00:09 | -33.93122 | 151.17757 | 29 ft | 2 kts | 190° |
| 2026-04-23 00:09 | -33.93104 | 151.17762 | 29 ft | 3 kts | 197° |
| 2026-04-23 00:09 | -33.93085 | 151.17771 | 30 ft | 3 kts | 210° |
| 2026-04-23 00:10 | -33.93069 | 151.17784 | 29 ft | 3 kts | 235° |
| 2026-04-23 00:10 | -33.93062 | 151.17802 | 29 ft | 2 kts | 276° |
| 2026-04-23 00:10 | -33.93063 | 151.17806 | 30 ft | 0 kts | 281° |
| 2026-04-23 00:14 | -33.93055 | 151.17766 | 29 ft | 8 kts | 287° |
| 2026-04-23 00:14 | -33.93037 | 151.17717 | 29 ft | 6 kts | 297° |
| 2026-04-23 00:14 | -33.93020 | 151.17673 | 29 ft | 6 kts | 290° |
| 2026-04-23 00:14 | -33.93010 | 151.17627 | 29 ft | 4 kts | 282° |
| 2026-04-23 00:15 | -33.93004 | 151.17593 | 29 ft | 4 kts | 281° |
| 2026-04-23 00:15 | -33.92997 | 151.17547 | 29 ft | 7 kts | 280° |
| 2026-04-23 00:15 | -33.92986 | 151.17478 | 27 ft | 9 kts | 281° |
| 2026-04-23 00:15 | -33.92972 | 151.17388 | 23 ft | 10 kts | 281° |
| 2026-04-23 00:16 | -33.92961 | 151.17317 | 20 ft | 4 kts | 281° |
| 2026-04-23 00:16 | -33.92960 | 151.17313 | 21 ft | 0 kts | 280° |
| 2026-04-23 00:18 | -33.92960 | 151.17310 | 19 ft | 2 kts | 281° |
| 2026-04-23 00:18 | -33.92951 | 151.17241 | 19 ft | 8 kts | 276° |
| 2026-04-23 00:19 | -33.92964 | 151.17181 | 19 ft | 8 kts | 218° |
| 2026-04-23 00:19 | -33.93003 | 151.17176 | 18 ft | 0 kts | 169° |
| 2026-04-23 00:19 | -33.93054 | 151.17189 | 19 ft | 31 kts | 168° |
| 2026-04-23 00:19 | -33.93507 | 151.17308 | 16 ft | 101 kts | 168° |
| 2026-04-23 00:20 | -33.94373 | 151.17532 | 57 ft | 149 kts | 167° |
| 2026-04-23 00:20 | -33.95376 | 151.17797 | 777 ft | 144 kts | 165° |
| 2026-04-23 00:20 | -33.96383 | 151.18079 | 1362 ft | 152 kts | 173° |
| 2026-04-23 00:20 | -33.97491 | 151.18006 | 1819 ft | 174 kts | 183° |
| 2026-04-23 00:21 | -33.98803 | 151.17881 | 2134 ft | 202 kts | 182° |
| 2026-04-23 00:21 | -34.00258 | 151.17739 | 2532 ft | 214 kts | 183° |
| 2026-04-23 00:21 | -34.01768 | 151.17585 | 2999 ft | 225 kts | 183° |
| 2026-04-23 00:21 | -34.03384 | 151.17650 | 3274 ft | 246 kts | 165° |
| 2026-04-23 00:22 | -34.05046 | 151.18253 | 4007 ft | 252 kts | 162° |
| 2026-04-23 00:22 | -34.06743 | 151.18845 | 4799 ft | 256 kts | 162° |
| 2026-04-23 00:22 | -34.08473 | 151.19430 | 5541 ft | 261 kts | 162° |
| 2026-04-23 00:22 | -34.10239 | 151.20022 | 6317 ft | 264 kts | 162° |
| 2026-04-23 00:23 | -34.12018 | 151.20616 | 7160 ft | 265 kts | 162° |
| 2026-04-23 00:23 | -34.13804 | 151.21212 | 7968 ft | 267 kts | 162° |
| 2026-04-23 00:23 | -34.15613 | 151.21816 | 8780 ft | 271 kts | 162° |
| 2026-04-23 00:23 | -34.17443 | 151.22425 | 9604 ft | 275 kts | 164° |
| 2026-04-23 00:24 | -34.19366 | 151.22569 | 10392 ft | 286 kts | 187° |
| 2026-04-23 00:24 | -34.21267 | 151.21594 | 10816 ft | 310 kts | 214° |
| 2026-04-23 00:24 | -34.22817 | 151.19716 | 11518 ft | 320 kts | 226° |
| 2026-04-23 00:24 | -34.24239 | 151.17669 | 12338 ft | 323 kts | 227° |
| 2026-04-23 00:25 | -34.25688 | 151.15583 | 13194 ft | 326 kts | 226° |
| 2026-04-23 00:25 | -34.27163 | 151.13472 | 14074 ft | 329 kts | 226° |
| 2026-04-23 00:25 | -34.28656 | 151.11356 | 14881 ft | 332 kts | 226° |
| 2026-04-23 00:25 | -34.30164 | 151.09228 | 15752 ft | 334 kts | 225° |
| 2026-04-23 00:26 | -34.31680 | 151.07089 | 16641 ft | 335 kts | 225° |
| 2026-04-23 00:26 | -34.33205 | 151.04939 | 17513 ft | 337 kts | 225° |
| 2026-04-23 00:26 | -34.34739 | 151.02775 | 18336 ft | 341 kts | 225° |
| 2026-04-23 00:26 | -34.36293 | 151.00582 | 19059 ft | 345 kts | 225° |
| 2026-04-23 00:27 | -34.37880 | 150.98442 | 19737 ft | 347 kts | 221° |
| 2026-04-23 00:27 | -34.39662 | 150.96434 | 20304 ft | 353 kts | 218° |
| 2026-04-23 00:27 | -34.41515 | 150.94477 | 20402 ft | 353 kts | 217° |
| 2026-04-23 00:27 | -34.43376 | 150.92525 | 20435 ft | 354 kts | 217° |
| 2026-04-23 00:28 | -34.45232 | 150.90559 | 20438 ft | 354 kts | 218° |
| 2026-04-23 00:28 | -34.47077 | 150.88581 | 20439 ft | 354 kts | 218° |
| 2026-04-23 00:28 | -34.48892 | 150.86619 | 20442 ft | 354 kts | 218° |
| 2026-04-23 00:28 | -34.50725 | 150.84629 | 20444 ft | 354 kts | 218° |
| 2026-04-23 00:29 | -34.52562 | 150.82630 | 20442 ft | 354 kts | 218° |
| 2026-04-23 00:29 | -34.54395 | 150.80635 | 20439 ft | 354 kts | 218° |
| 2026-04-23 00:29 | -34.56192 | 150.78590 | 20434 ft | 356 kts | 224° |
| 2026-04-23 00:29 | -34.57751 | 150.76232 | 20447 ft | 358 kts | 230° |
| 2026-04-23 00:30 | -34.59208 | 150.73778 | 20436 ft | 358 kts | 231° |
| 2026-04-23 00:30 | -34.60641 | 150.71301 | 20443 ft | 359 kts | 232° |
| 2026-04-23 00:30 | -34.61824 | 150.68614 | 20445 ft | 363 kts | 243° |
| 2026-04-23 00:30 | -34.62784 | 150.65776 | 20445 ft | 364 kts | 244° |
| 2026-04-23 00:31 | -34.63715 | 150.62908 | 20444 ft | 365 kts | 245° |
| 2026-04-23 00:31 | -34.64629 | 150.60077 | 20453 ft | 365 kts | 245° |
| 2026-04-23 00:31 | -34.65565 | 150.57199 | 20448 ft | 365 kts | 245° |
| 2026-04-23 00:31 | -34.66505 | 150.54333 | 20441 ft | 366 kts | 244° |
| 2026-04-23 00:32 | -34.67452 | 150.51466 | 20450 ft | 366 kts | 244° |
| 2026-04-23 00:32 | -34.68402 | 150.48599 | 20448 ft | 366 kts | 244° |
| 2026-04-23 00:32 | -34.69355 | 150.45731 | 20435 ft | 366 kts | 244° |
| 2026-04-23 00:32 | -34.70307 | 150.42867 | 20432 ft | 364 kts | 245° |
| 2026-04-23 00:33 | -34.71245 | 150.40046 | 20441 ft | 363 kts | 245° |
| 2026-04-23 00:33 | -34.72175 | 150.37239 | 20375 ft | 354 kts | 245° |
| 2026-04-23 00:33 | -34.73091 | 150.34477 | 20117 ft | 350 kts | 244° |
| 2026-04-23 00:33 | -34.74003 | 150.31730 | 19743 ft | 349 kts | 244° |
| 2026-04-23 00:34 | -34.74909 | 150.28998 | 19379 ft | 346 kts | 244° |
| 2026-04-23 00:34 | -34.75808 | 150.26284 | 19003 ft | 344 kts | 244° |
| 2026-04-23 00:34 | -34.76699 | 150.23589 | 18612 ft | 342 kts | 244° |
| 2026-04-23 00:34 | -34.77574 | 150.20945 | 18187 ft | 340 kts | 244° |
| 2026-04-23 00:35 | -34.78455 | 150.18277 | 17784 ft | 338 kts | 244° |
| 2026-04-23 00:35 | -34.79330 | 150.15626 | 17377 ft | 336 kts | 245° |
| 2026-04-23 00:35 | -34.80204 | 150.12976 | 16757 ft | 341 kts | 245° |
| 2026-04-23 00:35 | -34.81085 | 150.10306 | 16318 ft | 340 kts | 245° |
| 2026-04-23 00:36 | -34.81962 | 150.07640 | 15918 ft | 338 kts | 245° |
| 2026-04-23 00:36 | -34.82834 | 150.04986 | 15531 ft | 335 kts | 245° |
| 2026-04-23 00:36 | -34.83697 | 150.02358 | 15163 ft | 333 kts | 245° |
| 2026-04-23 00:36 | -34.84545 | 149.99774 | 14795 ft | 332 kts | 245° |
| 2026-04-23 00:37 | -34.85403 | 149.97157 | 14415 ft | 330 kts | 245° |
| 2026-04-23 00:37 | -34.86251 | 149.94570 | 14023 ft | 329 kts | 245° |
| 2026-04-23 00:37 | -34.87097 | 149.91989 | 13624 ft | 327 kts | 245° |
| 2026-04-23 00:37 | -34.87935 | 149.89426 | 13249 ft | 324 kts | 245° |
| 2026-04-23 00:38 | -34.88768 | 149.86879 | 12875 ft | 322 kts | 246° |
| 2026-04-23 00:38 | -34.89651 | 149.84387 | 12514 ft | 319 kts | 240° |
| 2026-04-23 00:38 | -34.90746 | 149.82054 | 12160 ft | 316 kts | 237° |
| 2026-04-23 00:38 | -34.91895 | 149.79776 | 11804 ft | 314 kts | 236° |
| 2026-04-23 00:39 | -34.93041 | 149.77499 | 11283 ft | 317 kts | 237° |
| 2026-04-23 00:39 | -34.94185 | 149.75186 | 10706 ft | 324 kts | 237° |
| 2026-04-23 00:39 | -34.95336 | 149.72814 | 10359 ft | 322 kts | 238° |
| 2026-04-23 00:39 | -34.96457 | 149.70485 | 10160 ft | 313 kts | 238° |
| 2026-04-23 00:40 | -34.97537 | 149.68232 | 10013 ft | 304 kts | 238° |
| 2026-04-23 00:40 | -34.98586 | 149.66043 | 9949 ft | 292 kts | 238° |
| 2026-04-23 00:40 | -34.99601 | 149.63925 | 9522 ft | 288 kts | 238° |
| 2026-04-23 00:40 | -35.00596 | 149.61850 | 9211 ft | 280 kts | 238° |
| 2026-04-23 00:41 | -35.01564 | 149.59827 | 8886 ft | 272 kts | 237° |
| 2026-04-23 00:41 | -35.02507 | 149.57858 | 8612 ft | 268 kts | 237° |
| 2026-04-23 00:41 | -35.03436 | 149.55919 | 8345 ft | 267 kts | 238° |
| 2026-04-23 00:41 | -35.04371 | 149.53962 | 8063 ft | 266 kts | 238° |
| 2026-04-23 00:42 | -35.05304 | 149.52011 | 7793 ft | 265 kts | 238° |
| 2026-04-23 00:42 | -35.06205 | 149.50045 | 7519 ft | 265 kts | 245° |
| 2026-04-23 00:42 | -35.06745 | 149.47893 | 7259 ft | 265 kts | 255° |
| 2026-04-23 00:42 | -35.07195 | 149.45715 | 7039 ft | 262 kts | 254° |
| 2026-04-23 00:43 | -35.07654 | 149.43608 | 6929 ft | 251 kts | 253° |
| 2026-04-23 00:43 | -35.08101 | 149.41608 | 6804 ft | 239 kts | 253° |
| 2026-04-23 00:43 | -35.08533 | 149.39685 | 6709 ft | 239 kts | 253° |
| 2026-04-23 00:43 | -35.08977 | 149.37720 | 6592 ft | 241 kts | 253° |
| 2026-04-23 00:44 | -35.09425 | 149.35747 | 6442 ft | 243 kts | 253° |
| 2026-04-23 00:44 | -35.09895 | 149.33755 | 6204 ft | 244 kts | 252° |
| 2026-04-23 00:44 | -35.10370 | 149.31783 | 5947 ft | 237 kts | 252° |
| 2026-04-23 00:44 | -35.10824 | 149.29888 | 5702 ft | 228 kts | 252° |
| 2026-04-23 00:45 | -35.11261 | 149.28069 | 5483 ft | 216 kts | 252° |
| 2026-04-23 00:45 | -35.11772 | 149.26410 | 5273 ft | 204 kts | 243° |
| 2026-04-23 00:45 | -35.12444 | 149.24944 | 5041 ft | 190 kts | 234° |
| 2026-04-23 00:45 | -35.13217 | 149.23707 | 4842 ft | 176 kts | 226° |
| 2026-04-23 00:46 | -35.14045 | 149.22663 | 4681 ft | 168 kts | 219° |
| 2026-04-23 00:46 | -35.14933 | 149.21771 | 4530 ft | 167 kts | 213° |
| 2026-04-23 00:46 | -35.15909 | 149.21002 | 4373 ft | 166 kts | 206° |
| 2026-04-23 00:46 | -35.16932 | 149.20395 | 4253 ft | 161 kts | 200° |
| 2026-04-23 00:47 | -35.17963 | 149.19901 | 3995 ft | 157 kts | 196° |
| 2026-04-23 00:47 | -35.19004 | 149.19580 | 3804 ft | 153 kts | 187° |
| 2026-04-23 00:47 | -35.20056 | 149.19446 | 3618 ft | 151 kts | 180° |
| 2026-04-23 00:47 | -35.21101 | 149.19444 | 3425 ft | 149 kts | 177° |
| 2026-04-23 00:48 | -35.22141 | 149.19447 | 3235 ft | 150 kts | 178° |
| 2026-04-23 00:48 | -35.23189 | 149.19446 | 3033 ft | 151 kts | 178° |
| 2026-04-23 00:48 | -35.24242 | 149.19445 | 2820 ft | 151 kts | 178° |
| 2026-04-23 00:48 | -35.25289 | 149.19444 | 2622 ft | 150 kts | 178° |
| 2026-04-23 00:49 | -35.26325 | 149.19444 | 2433 ft | 148 kts | 178° |
| 2026-04-23 00:49 | -35.27343 | 149.19442 | 2260 ft | 147 kts | 178° |
| 2026-04-23 00:49 | -35.28357 | 149.19434 | 2101 ft | 145 kts | 178° |
| 2026-04-23 00:49 | -35.29375 | 149.19441 | 1906 ft | 145 kts | 178° |
| 2026-04-23 00:50 | -35.30251 | 149.19445 | 1876 ft | 96 kts | 180° |
| 2026-04-23 00:50 | -35.30584 | 149.19443 | 1880 ft | 34 kts | 180° |
| 2026-04-23 00:50 | -35.30816 | 149.19444 | 1881 ft | 33 kts | 179° |
| 2026-04-23 00:50 | -35.30930 | 149.19443 | 1879 ft | 5 kts | 191° |
| 2026-04-23 00:51 | -35.30968 | 149.19374 | 1879 ft | 13 kts | 264° |
| 2026-04-23 00:51 | -35.30969 | 149.19305 | 1879 ft | 0 kts | 269° |